sensor_id;sensor_type;location;lat;lon;timestamp;P1;durP1;ratioP1;P2;durP2;ratioP2
2289;SDS011;1153;47.986;7.898;2023-10-13T00:02:01;3.67;;;2.83;;
2289;SDS011;1153;47.986;7.898;2023-10-13T00:04:28;4.07;;;2.10;;
2289;SDS011;1153;47.986;7.898;2023-10-13T00:06:54;8.13;;;2.27;;
2289;SDS011;1153;47.986;7.898;2023-10-13T00:09:21;3.33;;;2.70;;
2289;SDS011;1153;47.986;7.898;2023-10-13T00:11:50;2.83;;;2.63;;
2289;SDS011;1153;47.986;7.898;2023-10-13T00:14:17;3.50;;;2.20;;
2289;SDS011;1153;47.986;7.898;2023-10-13T00:16:45;3.77;;;2.30;;
2289;SDS011;1153;47.986;7.898;2023-10-13T00:19:30;3.33;;;2.57;;
2289;SDS011;1153;47.986;7.898;2023-10-13T00:22:21;3.40;;;2.40;;
2289;SDS011;1153;47.986;7.898;2023-10-13T00:24:47;8.90;;;2.53;;
2289;SDS011;1153;47.986;7.898;2023-10-13T00:27:16;2.33;;;2.13;;
2289;SDS011;1153;47.986;7.898;2023-10-13T00:32:50;6.17;;;2.13;;
2289;SDS011;1153;47.986;7.898;2023-10-13T00:35:18;3.03;;;2.73;;
2289;SDS011;1153;47.986;7.898;2023-10-13T00:37:52;2.77;;;2.57;;
2289;SDS011;1153;47.986;7.898;2023-10-13T00:40:18;3.10;;;2.90;;
2289;SDS011;1153;47.986;7.898;2023-10-13T00:43:04;4.13;;;3.30;;
2289;SDS011;1153;47.986;7.898;2023-10-13T00:45:48;2.90;;;2.07;;
2289;SDS011;1153;47.986;7.898;2023-10-13T00:48:20;3.10;;;2.30;;
2289;SDS011;1153;47.986;7.898;2023-10-13T00:50:49;3.60;;;1.97;;
2289;SDS011;1153;47.986;7.898;2023-10-13T00:53:14;3.73;;;3.40;;
2289;SDS011;1153;47.986;7.898;2023-10-13T00:55:39;4.93;;;2.63;;
2289;SDS011;1153;47.986;7.898;2023-10-13T00:58:06;1.90;;;1.80;;
2289;SDS011;1153;47.986;7.898;2023-10-13T01:00:32;4.80;;;2.27;;
2289;SDS011;1153;47.986;7.898;2023-10-13T01:03:11;4.00;;;1.87;;
2289;SDS011;1153;47.986;7.898;2023-10-13T01:05:37;7.00;;;3.20;;
2289;SDS011;1153;47.986;7.898;2023-10-13T01:08:04;3.50;;;2.77;;
2289;SDS011;1153;47.986;7.898;2023-10-13T01:10:29;2.93;;;2.20;;
2289;SDS011;1153;47.986;7.898;2023-10-13T01:12:57;4.43;;;3.40;;
2289;SDS011;1153;47.986;7.898;2023-10-13T01:15:24;2.13;;;1.93;;
2289;SDS011;1153;47.986;7.898;2023-10-13T01:17:54;4.77;;;2.70;;
2289;SDS011;1153;47.986;7.898;2023-10-13T01:20:21;3.70;;;3.43;;
2289;SDS011;1153;47.986;7.898;2023-10-13T01:22:50;3.50;;;3.20;;
2289;SDS011;1153;47.986;7.898;2023-10-13T01:25:24;5.60;;;1.70;;
2289;SDS011;1153;47.986;7.898;2023-10-13T01:27:53;3.53;;;3.23;;
2289;SDS011;1153;47.986;7.898;2023-10-13T01:30:19;5.87;;;2.87;;
2289;SDS011;1153;47.986;7.898;2023-10-13T01:32:51;2.57;;;2.37;;
2289;SDS011;1153;47.986;7.898;2023-10-13T01:35:18;3.10;;;1.70;;
2289;SDS011;1153;47.986;7.898;2023-10-13T01:37:44;3.23;;;2.57;;
2289;SDS011;1153;47.986;7.898;2023-10-13T01:40:10;2.33;;;2.13;;
2289;SDS011;1153;47.986;7.898;2023-10-13T01:42:36;3.07;;;2.80;;
2289;SDS011;1153;47.986;7.898;2023-10-13T01:45:02;5.47;;;2.37;;
2289;SDS011;1153;47.986;7.898;2023-10-13T01:47:33;2.13;;;1.50;;
2289;SDS011;1153;47.986;7.898;2023-10-13T01:49:58;3.13;;;2.10;;
2289;SDS011;1153;47.986;7.898;2023-10-13T01:52:31;3.67;;;2.23;;
2289;SDS011;1153;47.986;7.898;2023-10-13T01:54:56;3.30;;;2.50;;
2289;SDS011;1153;47.986;7.898;2023-10-13T01:57:26;6.60;;;3.07;;
2289;SDS011;1153;47.986;7.898;2023-10-13T01:59:53;4.10;;;3.17;;
2289;SDS011;1153;47.986;7.898;2023-10-13T02:02:19;3.37;;;3.07;;
2289;SDS011;1153;47.986;7.898;2023-10-13T02:04:53;5.63;;;2.87;;
2289;SDS011;1153;47.986;7.898;2023-10-13T02:07:22;6.17;;;2.23;;
2289;SDS011;1153;47.986;7.898;2023-10-13T02:09:51;5.30;;;2.77;;
2289;SDS011;1153;47.986;7.898;2023-10-13T02:12:19;2.83;;;2.47;;
2289;SDS011;1153;47.986;7.898;2023-10-13T02:14:50;2.80;;;2.57;;
2289;SDS011;1153;47.986;7.898;2023-10-13T02:17:15;5.07;;;2.57;;
2289;SDS011;1153;47.986;7.898;2023-10-13T02:19:41;2.40;;;2.20;;
2289;SDS011;1153;47.986;7.898;2023-10-13T02:22:10;2.90;;;2.63;;
2289;SDS011;1153;47.986;7.898;2023-10-13T02:24:36;3.60;;;3.10;;
2289;SDS011;1153;47.986;7.898;2023-10-13T02:27:05;3.73;;;2.30;;
2289;SDS011;1153;47.986;7.898;2023-10-13T02:29:38;3.97;;;2.60;;
2289;SDS011;1153;47.986;7.898;2023-10-13T02:32:04;3.27;;;2.90;;
2289;SDS011;1153;47.986;7.898;2023-10-13T02:34:30;3.30;;;2.90;;
2289;SDS011;1153;47.986;7.898;2023-10-13T02:36:56;10.50;;;2.97;;
2289;SDS011;1153;47.986;7.898;2023-10-13T02:39:22;6.03;;;3.60;;
2289;SDS011;1153;47.986;7.898;2023-10-13T02:41:55;8.63;;;2.93;;
2289;SDS011;1153;47.986;7.898;2023-10-13T02:44:21;3.07;;;2.87;;
2289;SDS011;1153;47.986;7.898;2023-10-13T02:46:53;3.40;;;2.53;;
2289;SDS011;1153;47.986;7.898;2023-10-13T02:49:20;6.90;;;3.20;;
2289;SDS011;1153;47.986;7.898;2023-10-13T02:51:45;3.07;;;2.87;;
2289;SDS011;1153;47.986;7.898;2023-10-13T02:54:11;14.13;;;2.73;;
2289;SDS011;1153;47.986;7.898;2023-10-13T02:56:37;10.67;;;2.47;;
2289;SDS011;1153;47.986;7.898;2023-10-13T02:59:02;4.70;;;2.53;;
2289;SDS011;1153;47.986;7.898;2023-10-13T03:01:33;5.57;;;2.00;;
2289;SDS011;1153;47.986;7.898;2023-10-13T03:04:02;5.93;;;2.30;;
2289;SDS011;1153;47.986;7.898;2023-10-13T03:06:28;2.23;;;2.13;;
2289;SDS011;1153;47.986;7.898;2023-10-13T03:09:03;3.93;;;2.57;;
2289;SDS011;1153;47.986;7.898;2023-10-13T03:11:42;3.30;;;3.00;;
2289;SDS011;1153;47.986;7.898;2023-10-13T03:14:12;4.00;;;2.40;;
2289;SDS011;1153;47.986;7.898;2023-10-13T03:16:49;12.77;;;2.37;;
2289;SDS011;1153;47.986;7.898;2023-10-13T03:19:14;3.37;;;2.80;;
2289;SDS011;1153;47.986;7.898;2023-10-13T03:21:39;2.63;;;2.13;;
2289;SDS011;1153;47.986;7.898;2023-10-13T03:24:09;4.43;;;2.70;;
2289;SDS011;1153;47.986;7.898;2023-10-13T03:26:38;2.53;;;2.33;;
2289;SDS011;1153;47.986;7.898;2023-10-13T03:29:09;6.07;;;2.53;;
2289;SDS011;1153;47.986;7.898;2023-10-13T03:31:38;2.33;;;2.20;;
2289;SDS011;1153;47.986;7.898;2023-10-13T03:34:07;11.00;;;3.57;;
2289;SDS011;1153;47.986;7.898;2023-10-13T03:36:37;2.50;;;2.23;;
2289;SDS011;1153;47.986;7.898;2023-10-13T03:39:22;3.07;;;2.87;;
2289;SDS011;1153;47.986;7.898;2023-10-13T03:41:55;3.57;;;2.63;;
2289;SDS011;1153;47.986;7.898;2023-10-13T03:44:20;4.20;;;2.47;;
2289;SDS011;1153;47.986;7.898;2023-10-13T03:46:45;3.75;;;2.55;;
2289;SDS011;1153;47.986;7.898;2023-10-13T03:49:13;2.23;;;2.13;;
2289;SDS011;1153;47.986;7.898;2023-10-13T03:51:39;9.00;;;2.10;;
2289;SDS011;1153;47.986;7.898;2023-10-13T03:54:05;2.53;;;1.40;;
2289;SDS011;1153;47.986;7.898;2023-10-13T03:56:32;7.43;;;2.43;;
2289;SDS011;1153;47.986;7.898;2023-10-13T03:59:03;2.20;;;2.00;;
2289;SDS011;1153;47.986;7.898;2023-10-13T04:01:32;5.93;;;2.63;;
2289;SDS011;1153;47.986;7.898;2023-10-13T04:04:01;7.60;;;2.50;;
2289;SDS011;1153;47.986;7.898;2023-10-13T04:06:35;4.77;;;2.10;;
2289;SDS011;1153;47.986;7.898;2023-10-13T04:09:19;5.07;;;4.53;;
2289;SDS011;1153;47.986;7.898;2023-10-13T04:11:57;3.10;;;2.20;;
2289;SDS011;1153;47.986;7.898;2023-10-13T04:14:31;3.93;;;2.90;;
2289;SDS011;1153;47.986;7.898;2023-10-13T04:17:15;4.20;;;3.90;;
2289;SDS011;1153;47.986;7.898;2023-10-13T04:19:40;2.10;;;2.00;;
2289;SDS011;1153;47.986;7.898;2023-10-13T04:22:24;5.90;;;2.10;;
2289;SDS011;1153;47.986;7.898;2023-10-13T04:25:09;4.93;;;1.77;;
2289;SDS011;1153;47.986;7.898;2023-10-13T04:27:56;1.93;;;1.73;;
2289;SDS011;1153;47.986;7.898;2023-10-13T04:30:40;4.67;;;2.00;;
2289;SDS011;1153;47.986;7.898;2023-10-13T04:33:20;3.00;;;2.33;;
2289;SDS011;1153;47.986;7.898;2023-10-13T04:36:04;2.37;;;2.03;;
2289;SDS011;1153;47.986;7.898;2023-10-13T04:38:39;2.80;;;2.60;;
2289;SDS011;1153;47.986;7.898;2023-10-13T04:41:20;8.23;;;2.30;;
2289;SDS011;1153;47.986;7.898;2023-10-13T04:43:48;3.90;;;2.30;;
2289;SDS011;1153;47.986;7.898;2023-10-13T04:46:36;2.97;;;2.70;;
2289;SDS011;1153;47.986;7.898;2023-10-13T04:49:22;2.57;;;2.03;;
2289;SDS011;1153;47.986;7.898;2023-10-13T04:52:00;4.93;;;1.73;;
2289;SDS011;1153;47.986;7.898;2023-10-13T04:54:35;2.33;;;1.90;;
2289;SDS011;1153;47.986;7.898;2023-10-13T05:00:04;5.10;;;2.60;;
2289;SDS011;1153;47.986;7.898;2023-10-13T05:02:35;6.03;;;2.90;;
2289;SDS011;1153;47.986;7.898;2023-10-13T05:05:04;5.00;;;1.93;;
2289;SDS011;1153;47.986;7.898;2023-10-13T05:07:39;2.90;;;2.00;;
2289;SDS011;1153;47.986;7.898;2023-10-13T05:10:23;2.67;;;2.40;;
2289;SDS011;1153;47.986;7.898;2023-10-13T05:13:07;2.97;;;2.40;;
2289;SDS011;1153;47.986;7.898;2023-10-13T05:15:51;2.33;;;2.13;;
2289;SDS011;1153;47.986;7.898;2023-10-13T05:18:35;3.57;;;2.10;;
2289;SDS011;1153;47.986;7.898;2023-10-13T05:21:19;2.63;;;2.40;;
2289;SDS011;1153;47.986;7.898;2023-10-13T05:24:03;3.57;;;2.23;;
2289;SDS011;1153;47.986;7.898;2023-10-13T05:26:47;4.53;;;2.87;;
2289;SDS011;1153;47.986;7.898;2023-10-13T05:29:31;12.60;;;2.30;;
2289;SDS011;1153;47.986;7.898;2023-10-13T05:32:15;7.53;;;2.80;;
2289;SDS011;1153;47.986;7.898;2023-10-13T05:34:59;5.33;;;2.03;;
2289;SDS011;1153;47.986;7.898;2023-10-13T05:37:43;2.77;;;2.07;;
2289;SDS011;1153;47.986;7.898;2023-10-13T05:40:27;3.77;;;1.90;;
2289;SDS011;1153;47.986;7.898;2023-10-13T05:43:11;2.73;;;2.53;;
2289;SDS011;1153;47.986;7.898;2023-10-13T05:46:01;2.63;;;2.23;;
2289;SDS011;1153;47.986;7.898;2023-10-13T05:49:01;2.07;;;1.83;;
2289;SDS011;1153;47.986;7.898;2023-10-13T05:51:27;2.47;;;2.23;;
2289;SDS011;1153;47.986;7.898;2023-10-13T05:54:11;8.47;;;3.10;;
2289;SDS011;1153;47.986;7.898;2023-10-13T05:59:23;5.53;;;2.60;;
2289;SDS011;1153;47.986;7.898;2023-10-13T06:02:07;3.07;;;2.00;;
2289;SDS011;1153;47.986;7.898;2023-10-13T06:04:51;3.07;;;2.00;;
2289;SDS011;1153;47.986;7.898;2023-10-13T06:07:35;2.50;;;2.03;;
2289;SDS011;1153;47.986;7.898;2023-10-13T06:10:20;7.47;;;2.80;;
2289;SDS011;1153;47.986;7.898;2023-10-13T06:13:04;4.00;;;2.13;;
2289;SDS011;1153;47.986;7.898;2023-10-13T06:15:48;3.03;;;2.13;;
2289;SDS011;1153;47.986;7.898;2023-10-13T06:18:32;17.53;;;2.80;;
2289;SDS011;1153;47.986;7.898;2023-10-13T06:21:16;6.30;;;2.10;;
2289;SDS011;1153;47.986;7.898;2023-10-13T06:24:00;2.77;;;2.57;;
2289;SDS011;1153;47.986;7.898;2023-10-13T06:26:47;3.60;;;1.90;;
2289;SDS011;1153;47.986;7.898;2023-10-13T06:29:31;3.23;;;2.83;;
2289;SDS011;1153;47.986;7.898;2023-10-13T06:31:56;3.27;;;1.50;;
2289;SDS011;1153;47.986;7.898;2023-10-13T06:34:22;4.83;;;2.20;;
2289;SDS011;1153;47.986;7.898;2023-10-13T06:37:02;3.37;;;2.10;;
2289;SDS011;1153;47.986;7.898;2023-10-13T06:39:27;10.33;;;1.70;;
2289;SDS011;1153;47.986;7.898;2023-10-13T06:42:02;4.50;;;1.90;;
2289;SDS011;1153;47.986;7.898;2023-10-13T06:44:28;9.70;;;2.03;;
2289;SDS011;1153;47.986;7.898;2023-10-13T06:46:57;3.50;;;2.40;;
2289;SDS011;1153;47.986;7.898;2023-10-13T06:49:22;2.27;;;1.90;;
2289;SDS011;1153;47.986;7.898;2023-10-13T06:51:48;2.87;;;2.57;;
2289;SDS011;1153;47.986;7.898;2023-10-13T06:54:13;3.33;;;1.30;;
2289;SDS011;1153;47.986;7.898;2023-10-13T06:56:45;2.13;;;1.60;;
2289;SDS011;1153;47.986;7.898;2023-10-13T06:59:11;1.97;;;1.30;;
2289;SDS011;1153;47.986;7.898;2023-10-13T07:01:39;3.60;;;1.47;;
2289;SDS011;1153;47.986;7.898;2023-10-13T07:04:08;7.93;;;2.33;;
2289;SDS011;1153;47.986;7.898;2023-10-13T07:06:44;4.27;;;2.30;;
2289;SDS011;1153;47.986;7.898;2023-10-13T07:09:16;5.43;;;1.53;;
2289;SDS011;1153;47.986;7.898;2023-10-13T07:11:59;12.37;;;2.40;;
2289;SDS011;1153;47.986;7.898;2023-10-13T07:14:28;4.40;;;2.13;;
2289;SDS011;1153;47.986;7.898;2023-10-13T07:16:59;4.70;;;1.57;;
2289;SDS011;1153;47.986;7.898;2023-10-13T07:19:25;4.90;;;1.00;;
2289;SDS011;1153;47.986;7.898;2023-10-13T07:21:54;6.60;;;1.47;;
2289;SDS011;1153;47.986;7.898;2023-10-13T07:24:23;3.93;;;1.53;;
2289;SDS011;1153;47.986;7.898;2023-10-13T07:26:49;8.00;;;1.43;;
2289;SDS011;1153;47.986;7.898;2023-10-13T07:29:22;2.20;;;1.70;;
2289;SDS011;1153;47.986;7.898;2023-10-13T07:31:49;4.03;;;2.20;;
2289;SDS011;1153;47.986;7.898;2023-10-13T07:34:15;2.77;;;2.00;;
2289;SDS011;1153;47.986;7.898;2023-10-13T07:36:54;1.50;;;1.10;;
2289;SDS011;1153;47.986;7.898;2023-10-13T07:39:28;2.60;;;1.50;;
2289;SDS011;1153;47.986;7.898;2023-10-13T07:41:53;4.77;;;1.43;;
2289;SDS011;1153;47.986;7.898;2023-10-13T07:44:19;1.90;;;1.10;;
2289;SDS011;1153;47.986;7.898;2023-10-13T07:46:50;2.63;;;1.30;;
2289;SDS011;1153;47.986;7.898;2023-10-13T07:49:23;4.20;;;1.23;;
2289;SDS011;1153;47.986;7.898;2023-10-13T07:51:48;2.30;;;1.23;;
2289;SDS011;1153;47.986;7.898;2023-10-13T07:54:14;5.23;;;1.10;;
2289;SDS011;1153;47.986;7.898;2023-10-13T07:56:46;5.83;;;1.10;;
2289;SDS011;1153;47.986;7.898;2023-10-13T07:59:12;3.30;;;0.90;;
2289;SDS011;1153;47.986;7.898;2023-10-13T08:01:38;1.83;;;1.70;;
2289;SDS011;1153;47.986;7.898;2023-10-13T08:04:07;3.00;;;1.43;;
2289;SDS011;1153;47.986;7.898;2023-10-13T08:06:36;3.80;;;1.17;;
2289;SDS011;1153;47.986;7.898;2023-10-13T08:09:01;3.33;;;1.60;;
2289;SDS011;1153;47.986;7.898;2023-10-13T08:11:34;3.60;;;2.40;;
2289;SDS011;1153;47.986;7.898;2023-10-13T08:14:03;6.43;;;1.63;;
2289;SDS011;1153;47.986;7.898;2023-10-13T08:16:40;4.60;;;1.60;;
2289;SDS011;1153;47.986;7.898;2023-10-13T08:19:25;7.43;;;3.00;;
2289;SDS011;1153;47.986;7.898;2023-10-13T08:21:54;28.27;;;5.87;;
2289;SDS011;1153;47.986;7.898;2023-10-13T08:24:24;2.67;;;1.23;;
2289;SDS011;1153;47.986;7.898;2023-10-13T08:27:05;6.17;;;1.90;;
2289;SDS011;1153;47.986;7.898;2023-10-13T08:29:40;3.17;;;1.23;;
2289;SDS011;1153;47.986;7.898;2023-10-13T08:32:21;1.23;;;0.93;;
2289;SDS011;1153;47.986;7.898;2023-10-13T08:35:01;3.00;;;1.77;;
2289;SDS011;1153;47.986;7.898;2023-10-13T08:37:26;1.93;;;1.03;;
2289;SDS011;1153;47.986;7.898;2023-10-13T08:39:52;3.90;;;1.00;;
2289;SDS011;1153;47.986;7.898;2023-10-13T08:42:43;9.70;;;1.80;;
2289;SDS011;1153;47.986;7.898;2023-10-13T08:45:12;4.80;;;1.63;;
2289;SDS011;1153;47.986;7.898;2023-10-13T08:47:53;10.13;;;1.03;;
2289;SDS011;1153;47.986;7.898;2023-10-13T08:50:32;9.67;;;1.40;;
2289;SDS011;1153;47.986;7.898;2023-10-13T08:53:22;3.63;;;1.57;;
2289;SDS011;1153;47.986;7.898;2023-10-13T08:56:10;6.13;;;1.60;;
2289;SDS011;1153;47.986;7.898;2023-10-13T08:58:39;6.80;;;1.20;;
2289;SDS011;1153;47.986;7.898;2023-10-13T09:04:10;2.97;;;1.17;;
2289;SDS011;1153;47.986;7.898;2023-10-13T09:06:57;4.03;;;0.90;;
2289;SDS011;1153;47.986;7.898;2023-10-13T09:09:27;6.20;;;1.30;;
2289;SDS011;1153;47.986;7.898;2023-10-13T09:11:59;2.30;;;1.13;;
2289;SDS011;1153;47.986;7.898;2023-10-13T09:14:39;4.50;;;1.07;;
2289;SDS011;1153;47.986;7.898;2023-10-13T09:17:09;3.23;;;1.20;;
2289;SDS011;1153;47.986;7.898;2023-10-13T09:19:47;4.53;;;1.73;;
2289;SDS011;1153;47.986;7.898;2023-10-13T09:22:22;1.27;;;1.10;;
2289;SDS011;1153;47.986;7.898;2023-10-13T09:25:03;2.10;;;1.27;;
2289;SDS011;1153;47.986;7.898;2023-10-13T09:27:30;3.23;;;2.20;;
2289;SDS011;1153;47.986;7.898;2023-10-13T09:30:01;3.33;;;1.70;;
2289;SDS011;1153;47.986;7.898;2023-10-13T09:32:43;12.13;;;2.20;;
2289;SDS011;1153;47.986;7.898;2023-10-13T09:35:12;10.70;;;1.10;;
2289;SDS011;1153;47.986;7.898;2023-10-13T09:37:41;4.23;;;1.03;;
2289;SDS011;1153;47.986;7.898;2023-10-13T09:40:07;3.37;;;0.77;;
2289;SDS011;1153;47.986;7.898;2023-10-13T09:42:49;5.23;;;1.00;;
2289;SDS011;1153;47.986;7.898;2023-10-13T09:45:15;4.37;;;1.53;;
2289;SDS011;1153;47.986;7.898;2023-10-13T09:47:43;4.40;;;1.10;;
2289;SDS011;1153;47.986;7.898;2023-10-13T09:50:09;2.13;;;1.10;;
2289;SDS011;1153;47.986;7.898;2023-10-13T09:52:48;5.07;;;1.10;;
2289;SDS011;1153;47.986;7.898;2023-10-13T09:55:18;4.83;;;1.80;;
2289;SDS011;1153;47.986;7.898;2023-10-13T09:57:45;6.43;;;2.20;;
2289;SDS011;1153;47.986;7.898;2023-10-13T10:00:15;7.10;;;1.10;;
2289;SDS011;1153;47.986;7.898;2023-10-13T10:03:02;3.13;;;1.33;;
2289;SDS011;1153;47.986;7.898;2023-10-13T10:05:40;5.03;;;0.87;;
2289;SDS011;1153;47.986;7.898;2023-10-13T10:08:05;2.90;;;0.80;;
2289;SDS011;1153;47.986;7.898;2023-10-13T10:10:51;1.87;;;1.03;;
2289;SDS011;1153;47.986;7.898;2023-10-13T10:13:23;4.23;;;2.00;;
2289;SDS011;1153;47.986;7.898;2023-10-13T10:15:55;1.80;;;0.97;;
2289;SDS011;1153;47.986;7.898;2023-10-13T10:18:23;2.90;;;0.87;;
2289;SDS011;1153;47.986;7.898;2023-10-13T10:20:50;1.83;;;1.47;;
2289;SDS011;1153;47.986;7.898;2023-10-13T10:23:29;4.73;;;1.93;;
2289;SDS011;1153;47.986;7.898;2023-10-13T10:26:08;2.70;;;1.40;;
2289;SDS011;1153;47.986;7.898;2023-10-13T10:28:37;2.63;;;1.70;;
2289;SDS011;1153;47.986;7.898;2023-10-13T10:31:06;1.60;;;1.50;;
2289;SDS011;1153;47.986;7.898;2023-10-13T10:33:37;18.40;;;1.90;;
2289;SDS011;1153;47.986;7.898;2023-10-13T10:36:03;6.10;;;1.87;;
2289;SDS011;1153;47.986;7.898;2023-10-13T10:38:30;4.43;;;1.83;;
2289;SDS011;1153;47.986;7.898;2023-10-13T10:40:57;5.87;;;1.43;;
2289;SDS011;1153;47.986;7.898;2023-10-13T10:46:13;6.63;;;1.33;;
2289;SDS011;1153;47.986;7.898;2023-10-13T10:48:38;4.43;;;1.13;;
2289;SDS011;1153;47.986;7.898;2023-10-13T10:51:07;5.43;;;1.73;;
2289;SDS011;1153;47.986;7.898;2023-10-13T10:53:39;5.43;;;2.10;;
2289;SDS011;1153;47.986;7.898;2023-10-13T10:56:11;9.40;;;1.63;;
2289;SDS011;1153;47.986;7.898;2023-10-13T10:58:49;2.20;;;0.90;;
2289;SDS011;1153;47.986;7.898;2023-10-13T11:01:20;1.20;;;1.10;;
2289;SDS011;1153;47.986;7.898;2023-10-13T11:03:52;1.50;;;1.00;;
2289;SDS011;1153;47.986;7.898;2023-10-13T11:06:20;3.90;;;0.90;;
2289;SDS011;1153;47.986;7.898;2023-10-13T11:08:49;3.73;;;1.23;;
2289;SDS011;1153;47.986;7.898;2023-10-13T11:11:27;1.60;;;1.20;;
2289;SDS011;1153;47.986;7.898;2023-10-13T11:13:55;5.23;;;1.00;;
2289;SDS011;1153;47.986;7.898;2023-10-13T11:16:35;7.03;;;1.30;;
2289;SDS011;1153;47.986;7.898;2023-10-13T11:19:03;2.80;;;1.53;;
2289;SDS011;1153;47.986;7.898;2023-10-13T11:21:30;4.03;;;1.13;;
2289;SDS011;1153;47.986;7.898;2023-10-13T11:23:56;2.87;;;1.70;;
2289;SDS011;1153;47.986;7.898;2023-10-13T11:26:21;1.10;;;1.00;;
2289;SDS011;1153;47.986;7.898;2023-10-13T11:28:50;12.43;;;1.27;;
2289;SDS011;1153;47.986;7.898;2023-10-13T11:31:15;3.10;;;1.10;;
2289;SDS011;1153;47.986;7.898;2023-10-13T11:33:44;6.40;;;1.47;;
2289;SDS011;1153;47.986;7.898;2023-10-13T11:36:12;2.80;;;1.10;;
2289;SDS011;1153;47.986;7.898;2023-10-13T11:38:44;1.33;;;1.10;;
2289;SDS011;1153;47.986;7.898;2023-10-13T11:41:12;2.63;;;1.47;;
2289;SDS011;1153;47.986;7.898;2023-10-13T11:46:12;11.87;;;2.00;;
2289;SDS011;1153;47.986;7.898;2023-10-13T11:48:39;1.20;;;0.90;;
2289;SDS011;1153;47.986;7.898;2023-10-13T11:51:07;4.00;;;1.80;;
2289;SDS011;1153;47.986;7.898;2023-10-13T11:53:32;3.40;;;0.87;;
2289;SDS011;1153;47.986;7.898;2023-10-13T11:55:57;1.53;;;1.43;;
2289;SDS011;1153;47.986;7.898;2023-10-13T11:58:23;6.20;;;1.20;;
2289;SDS011;1153;47.986;7.898;2023-10-13T12:00:48;1.77;;;1.00;;
2289;SDS011;1153;47.986;7.898;2023-10-13T12:03:18;4.13;;;1.70;;
2289;SDS011;1153;47.986;7.898;2023-10-13T12:06:02;3.67;;;1.10;;
2289;SDS011;1153;47.986;7.898;2023-10-13T12:08:47;1.23;;;0.73;;
2289;SDS011;1153;47.986;7.898;2023-10-13T12:11:16;2.57;;;1.00;;
2289;SDS011;1153;47.986;7.898;2023-10-13T12:13:57;8.10;;;1.30;;
2289;SDS011;1153;47.986;7.898;2023-10-13T12:16:22;1.70;;;1.27;;
2289;SDS011;1153;47.986;7.898;2023-10-13T12:18:48;2.10;;;1.07;;
2289;SDS011;1153;47.986;7.898;2023-10-13T12:21:18;1.27;;;0.90;;
2289;SDS011;1153;47.986;7.898;2023-10-13T12:23:46;1.20;;;0.80;;
2289;SDS011;1153;47.986;7.898;2023-10-13T12:26:11;1.43;;;1.07;;
2289;SDS011;1153;47.986;7.898;2023-10-13T12:28:44;4.27;;;1.40;;
2289;SDS011;1153;47.986;7.898;2023-10-13T12:31:16;1.60;;;1.23;;
2289;SDS011;1153;47.986;7.898;2023-10-13T12:33:42;2.87;;;0.90;;
2289;SDS011;1153;47.986;7.898;2023-10-13T12:36:07;6.93;;;1.50;;
2289;SDS011;1153;47.986;7.898;2023-10-13T12:38:39;2.03;;;0.90;;
2289;SDS011;1153;47.986;7.898;2023-10-13T12:41:16;3.23;;;1.80;;
2289;SDS011;1153;47.986;7.898;2023-10-13T12:44:00;3.23;;;2.93;;
2289;SDS011;1153;47.986;7.898;2023-10-13T12:46:44;1.13;;;1.03;;
2289;SDS011;1153;47.986;7.898;2023-10-13T12:49:28;2.70;;;0.80;;
2289;SDS011;1153;47.986;7.898;2023-10-13T12:52:13;1.67;;;1.00;;
2289;SDS011;1153;47.986;7.898;2023-10-13T12:54:42;2.40;;;1.00;;
2289;SDS011;1153;47.986;7.898;2023-10-13T12:57:11;4.47;;;0.83;;
2289;SDS011;1153;47.986;7.898;2023-10-13T12:59:36;2.90;;;0.90;;
2289;SDS011;1153;47.986;7.898;2023-10-13T13:02:03;1.30;;;1.03;;
2289;SDS011;1153;47.986;7.898;2023-10-13T13:04:32;1.67;;;0.80;;
2289;SDS011;1153;47.986;7.898;2023-10-13T13:07:01;1.00;;;0.70;;
2289;SDS011;1153;47.986;7.898;2023-10-13T13:09:26;1.80;;;1.00;;
2289;SDS011;1153;47.986;7.898;2023-10-13T13:11:55;2.08;;;1.08;;
2289;SDS011;1153;47.986;7.898;2023-10-13T13:14:23;1.27;;;1.00;;
2289;SDS011;1153;47.986;7.898;2023-10-13T13:16:55;3.60;;;1.00;;
2289;SDS011;1153;47.986;7.898;2023-10-13T13:19:29;1.20;;;0.80;;
2289;SDS011;1153;47.986;7.898;2023-10-13T13:21:54;1.13;;;1.03;;
2289;SDS011;1153;47.986;7.898;2023-10-13T13:24:19;1.75;;;0.88;;
2289;SDS011;1153;47.986;7.898;2023-10-13T13:26:44;6.15;;;1.00;;
2289;SDS011;1153;47.986;7.898;2023-10-13T13:29:09;1.38;;;1.00;;
2289;SDS011;1153;47.986;7.898;2023-10-13T13:31:35;2.43;;;1.10;;
2289;SDS011;1153;47.986;7.898;2023-10-13T13:34:06;2.60;;;1.43;;
2289;SDS011;1153;47.986;7.898;2023-10-13T13:36:31;2.80;;;1.23;;
2289;SDS011;1153;47.986;7.898;2023-10-13T13:38:57;6.20;;;1.13;;
2289;SDS011;1153;47.986;7.898;2023-10-13T13:41:25;2.80;;;0.80;;
2289;SDS011;1153;47.986;7.898;2023-10-13T13:43:50;2.70;;;0.83;;
2289;SDS011;1153;47.986;7.898;2023-10-13T13:46:18;3.45;;;0.80;;
2289;SDS011;1153;47.986;7.898;2023-10-13T13:48:44;1.33;;;1.23;;
2289;SDS011;1153;47.986;7.898;2023-10-13T13:51:12;1.77;;;0.90;;
2289;SDS011;1153;47.986;7.898;2023-10-13T13:53:39;3.97;;;1.07;;
2289;SDS011;1153;47.986;7.898;2023-10-13T13:56:08;6.90;;;1.10;;
2289;SDS011;1153;47.986;7.898;2023-10-13T13:58:33;1.43;;;0.93;;
2289;SDS011;1153;47.986;7.898;2023-10-13T14:01:01;2.20;;;0.87;;
2289;SDS011;1153;47.986;7.898;2023-10-13T14:03:36;3.23;;;0.73;;
2289;SDS011;1153;47.986;7.898;2023-10-13T14:06:01;9.10;;;1.17;;
2289;SDS011;1153;47.986;7.898;2023-10-13T14:08:28;3.30;;;0.80;;
2289;SDS011;1153;47.986;7.898;2023-10-13T14:10:53;1.30;;;0.77;;
2289;SDS011;1153;47.986;7.898;2023-10-13T14:13:36;2.00;;;0.70;;
2289;SDS011;1153;47.986;7.898;2023-10-13T14:16:17;4.53;;;1.30;;
2289;SDS011;1153;47.986;7.898;2023-10-13T14:18:52;1.57;;;0.80;;
2289;SDS011;1153;47.986;7.898;2023-10-13T14:21:17;1.60;;;0.90;;
2289;SDS011;1153;47.986;7.898;2023-10-13T14:23:44;2.73;;;0.67;;
2289;SDS011;1153;47.986;7.898;2023-10-13T14:26:11;2.37;;;1.00;;
2289;SDS011;1153;47.986;7.898;2023-10-13T14:28:37;2.10;;;0.80;;
2289;SDS011;1153;47.986;7.898;2023-10-13T14:31:11;1.20;;;0.90;;
2289;SDS011;1153;47.986;7.898;2023-10-13T14:33:38;1.43;;;1.23;;
2289;SDS011;1153;47.986;7.898;2023-10-13T14:36:04;3.07;;;1.20;;
2289;SDS011;1153;47.986;7.898;2023-10-13T14:38:29;2.13;;;0.80;;
2289;SDS011;1153;47.986;7.898;2023-10-13T14:40:57;1.97;;;1.23;;
2289;SDS011;1153;47.986;7.898;2023-10-13T14:43:23;2.63;;;1.13;;
2289;SDS011;1153;47.986;7.898;2023-10-13T14:45:52;2.50;;;1.23;;
2289;SDS011;1153;47.986;7.898;2023-10-13T14:48:17;10.77;;;2.30;;
2289;SDS011;1153;47.986;7.898;2023-10-13T14:50:42;2.27;;;0.77;;
2289;SDS011;1153;47.986;7.898;2023-10-13T14:53:08;5.53;;;1.03;;
2289;SDS011;1153;47.986;7.898;2023-10-13T14:55:33;2.43;;;0.80;;
2289;SDS011;1153;47.986;7.898;2023-10-13T14:58:04;3.67;;;0.60;;
2289;SDS011;1153;47.986;7.898;2023-10-13T15:00:29;2.83;;;0.90;;
2289;SDS011;1153;47.986;7.898;2023-10-13T15:02:56;2.17;;;0.73;;
2289;SDS011;1153;47.986;7.898;2023-10-13T15:05:26;2.00;;;0.70;;
2289;SDS011;1153;47.986;7.898;2023-10-13T15:07:54;8.13;;;1.27;;
2289;SDS011;1153;47.986;7.898;2023-10-13T15:10:20;1.73;;;0.80;;
2289;SDS011;1153;47.986;7.898;2023-10-13T15:12:45;7.53;;;1.33;;
2289;SDS011;1153;47.986;7.898;2023-10-13T15:15:11;2.50;;;0.90;;
2289;SDS011;1153;47.986;7.898;2023-10-13T15:17:41;5.67;;;0.83;;
2289;SDS011;1153;47.986;7.898;2023-10-13T15:20:06;1.23;;;0.70;;
2289;SDS011;1153;47.986;7.898;2023-10-13T15:22:34;2.50;;;1.37;;
2289;SDS011;1153;47.986;7.898;2023-10-13T15:25:01;4.80;;;1.20;;
2289;SDS011;1153;47.986;7.898;2023-10-13T15:27:34;3.90;;;1.43;;
2289;SDS011;1153;47.986;7.898;2023-10-13T15:30:06;4.40;;;1.07;;
2289;SDS011;1153;47.986;7.898;2023-10-13T15:32:44;5.13;;;1.17;;
2289;SDS011;1153;47.986;7.898;2023-10-13T15:35:10;2.73;;;1.10;;
2289;SDS011;1153;47.986;7.898;2023-10-13T15:37:37;2.70;;;1.10;;
2289;SDS011;1153;47.986;7.898;2023-10-13T15:40:02;5.20;;;1.80;;
2289;SDS011;1153;47.986;7.898;2023-10-13T15:42:29;3.50;;;1.33;;
2289;SDS011;1153;47.986;7.898;2023-10-13T15:44:54;4.30;;;1.92;;
2289;SDS011;1153;47.986;7.898;2023-10-13T15:47:19;1.52;;;1.27;;
2289;SDS011;1153;47.986;7.898;2023-10-13T15:49:44;13.00;;;1.37;;
2289;SDS011;1153;47.986;7.898;2023-10-13T15:52:10;8.17;;;1.80;;
2289;SDS011;1153;47.986;7.898;2023-10-13T15:54:35;1.67;;;0.90;;
2289;SDS011;1153;47.986;7.898;2023-10-13T15:57:00;7.00;;;1.07;;
2289;SDS011;1153;47.986;7.898;2023-10-13T15:59:25;2.37;;;1.30;;